sensor_id;sensor_type;location;lat;lon;timestamp;P1;durP1;ratioP1;P2;durP2;ratioP2
79761;SDS011;69249;42.122;24.734;2023-07-24T00:01:20;10.00;;;8.20;;
79761;SDS011;69249;42.122;24.734;2023-07-24T00:03:45;10.25;;;8.13;;
79761;SDS011;69249;42.122;24.734;2023-07-24T00:06:11;14.20;;;9.40;;
79761;SDS011;69249;42.122;24.734;2023-07-24T00:08:37;15.63;;;9.75;;
79761;SDS011;69249;42.122;24.734;2023-07-24T00:11:06;17.55;;;10.38;;
79761;SDS011;69249;42.122;24.734;2023-07-24T00:13:33;13.43;;;10.40;;
79761;SDS011;69249;42.122;24.734;2023-07-24T00:15:58;13.73;;;10.70;;
79761;SDS011;69249;42.122;24.734;2023-07-24T00:18:24;14.48;;;10.38;;
79761;SDS011;69249;42.122;24.734;2023-07-24T00:20:50;12.13;;;10.00;;
79761;SDS011;69249;42.122;24.734;2023-07-24T00:23:15;11.73;;;10.10;;
79761;SDS011;69249;42.122;24.734;2023-07-24T00:25:41;15.52;;;10.15;;
79761;SDS011;69249;42.122;24.734;2023-07-24T00:28:07;12.18;;;9.50;;
79761;SDS011;69249;42.122;24.734;2023-07-24T00:30:32;13.90;;;9.23;;
79761;SDS011;69249;42.122;24.734;2023-07-24T00:32:58;12.80;;;8.48;;
79761;SDS011;69249;42.122;24.734;2023-07-24T00:35:25;10.05;;;7.63;;
79761;SDS011;69249;42.122;24.734;2023-07-24T00:37:51;12.75;;;8.23;;
79761;SDS011;69249;42.122;24.734;2023-07-24T00:40:17;11.45;;;8.07;;
79761;SDS011;69249;42.122;24.734;2023-07-24T00:42:46;10.68;;;7.93;;
79761;SDS011;69249;42.122;24.734;2023-07-24T00:45:14;12.82;;;7.97;;
79761;SDS011;69249;42.122;24.734;2023-07-24T00:47:40;13.30;;;7.72;;
79761;SDS011;69249;42.122;24.734;2023-07-24T00:50:07;10.98;;;7.65;;
79761;SDS011;69249;42.122;24.734;2023-07-24T00:52:34;10.35;;;7.55;;
79761;SDS011;69249;42.122;24.734;2023-07-24T00:55:00;10.75;;;7.28;;
79761;SDS011;69249;42.122;24.734;2023-07-24T00:57:26;10.32;;;7.10;;
79761;SDS011;69249;42.122;24.734;2023-07-24T00:59:51;12.88;;;7.32;;
79761;SDS011;69249;42.122;24.734;2023-07-24T01:02:17;9.88;;;7.07;;
79761;SDS011;69249;42.122;24.734;2023-07-24T01:04:43;9.60;;;7.18;;
79761;SDS011;69249;42.122;24.734;2023-07-24T01:07:09;8.48;;;7.13;;
79761;SDS011;69249;42.122;24.734;2023-07-24T01:09:35;9.07;;;6.78;;
79761;SDS011;69249;42.122;24.734;2023-07-24T01:12:13;7.95;;;6.97;;
79761;SDS011;69249;42.122;24.734;2023-07-24T01:15:20;10.88;;;6.65;;
79761;SDS011;69249;42.122;24.734;2023-07-24T01:17:48;9.68;;;6.63;;
79761;SDS011;69249;42.122;24.734;2023-07-24T01:20:18;10.63;;;6.38;;
79761;SDS011;69249;42.122;24.734;2023-07-24T01:22:57;11.18;;;6.55;;
79761;SDS011;69249;42.122;24.734;2023-07-24T01:27:56;9.98;;;6.60;;
79761;SDS011;69249;42.122;24.734;2023-07-24T01:30:22;13.02;;;6.57;;
79761;SDS011;69249;42.122;24.734;2023-07-24T01:32:47;9.07;;;6.13;;
79761;SDS011;69249;42.122;24.734;2023-07-24T01:35:14;8.25;;;6.55;;
79761;SDS011;69249;42.122;24.734;2023-07-24T01:37:40;10.77;;;5.97;;
79761;SDS011;69249;42.122;24.734;2023-07-24T01:40:08;8.82;;;6.35;;
79761;SDS011;69249;42.122;24.734;2023-07-24T01:42:35;9.07;;;6.05;;
79761;SDS011;69249;42.122;24.734;2023-07-24T01:45:02;9.75;;;6.55;;
79761;SDS011;69249;42.122;24.734;2023-07-24T01:47:28;9.45;;;6.30;;
79761;SDS011;69249;42.122;24.734;2023-07-24T01:49:55;9.05;;;6.57;;
79761;SDS011;69249;42.122;24.734;2023-07-24T01:52:21;7.95;;;6.35;;
79761;SDS011;69249;42.122;24.734;2023-07-24T01:54:47;12.45;;;7.07;;
79761;SDS011;69249;42.122;24.734;2023-07-24T01:57:13;8.57;;;6.07;;
79761;SDS011;69249;42.122;24.734;2023-07-24T01:59:39;10.93;;;6.28;;
79761;SDS011;69249;42.122;24.734;2023-07-24T02:02:05;8.45;;;6.75;;
79761;SDS011;69249;42.122;24.734;2023-07-24T02:04:30;10.52;;;6.63;;
79761;SDS011;69249;42.122;24.734;2023-07-24T02:06:56;10.18;;;7.20;;
79761;SDS011;69249;42.122;24.734;2023-07-24T02:09:22;7.35;;;6.47;;
79761;SDS011;69249;42.122;24.734;2023-07-24T02:11:47;10.35;;;7.18;;
79761;SDS011;69249;42.122;24.734;2023-07-24T02:14:13;9.75;;;7.07;;
79761;SDS011;69249;42.122;24.734;2023-07-24T02:16:41;11.32;;;7.90;;
79761;SDS011;69249;42.122;24.734;2023-07-24T02:19:07;15.23;;;7.95;;
79761;SDS011;69249;42.122;24.734;2023-07-24T02:21:33;12.40;;;8.45;;
79761;SDS011;69249;42.122;24.734;2023-07-24T02:23:58;16.08;;;10.07;;
79761;SDS011;69249;42.122;24.734;2023-07-24T02:26:24;13.63;;;9.75;;
79761;SDS011;69249;42.122;24.734;2023-07-24T02:28:50;14.38;;;9.77;;
79761;SDS011;69249;42.122;24.734;2023-07-24T02:31:15;19.42;;;11.23;;
79761;SDS011;69249;42.122;24.734;2023-07-24T02:33:41;14.50;;;10.50;;
79761;SDS011;69249;42.122;24.734;2023-07-24T02:36:07;14.98;;;11.15;;
79761;SDS011;69249;42.122;24.734;2023-07-24T02:38:33;15.68;;;10.70;;
79761;SDS011;69249;42.122;24.734;2023-07-24T02:40:58;16.33;;;11.38;;
79761;SDS011;69249;42.122;24.734;2023-07-24T02:43:24;15.10;;;10.05;;
79761;SDS011;69249;42.122;24.734;2023-07-24T02:45:50;19.80;;;11.35;;
79761;SDS011;69249;42.122;24.734;2023-07-24T02:48:15;13.70;;;10.63;;
79761;SDS011;69249;42.122;24.734;2023-07-24T02:50:41;17.00;;;11.45;;
79761;SDS011;69249;42.122;24.734;2023-07-24T02:53:07;18.00;;;12.75;;
79761;SDS011;69249;42.122;24.734;2023-07-24T02:55:32;21.10;;;14.48;;
79761;SDS011;69249;42.122;24.734;2023-07-24T02:58:00;22.80;;;15.98;;
79761;SDS011;69249;42.122;24.734;2023-07-24T03:00:26;25.00;;;15.93;;
79761;SDS011;69249;42.122;24.734;2023-07-24T03:02:54;29.70;;;17.42;;
79761;SDS011;69249;42.122;24.734;2023-07-24T03:05:20;26.65;;;15.98;;
79761;SDS011;69249;42.122;24.734;2023-07-24T03:07:46;23.13;;;16.65;;
79761;SDS011;69249;42.122;24.734;2023-07-24T03:10:11;29.42;;;17.55;;
79761;SDS011;69249;42.122;24.734;2023-07-24T03:12:37;26.60;;;17.13;;
79761;SDS011;69249;42.122;24.734;2023-07-24T03:15:03;27.40;;;18.40;;
79761;SDS011;69249;42.122;24.734;2023-07-24T03:17:29;26.75;;;17.23;;
79761;SDS011;69249;42.122;24.734;2023-07-24T03:19:54;30.20;;;17.95;;
79761;SDS011;69249;42.122;24.734;2023-07-24T03:22:20;23.58;;;16.70;;
79761;SDS011;69249;42.122;24.734;2023-07-24T03:24:46;27.48;;;18.55;;
79761;SDS011;69249;42.122;24.734;2023-07-24T03:27:11;31.70;;;20.20;;
79761;SDS011;69249;42.122;24.734;2023-07-24T03:29:37;30.92;;;20.20;;
79761;SDS011;69249;42.122;24.734;2023-07-24T03:32:04;28.77;;;19.73;;
79761;SDS011;69249;42.122;24.734;2023-07-24T03:34:30;29.70;;;19.23;;
79761;SDS011;69249;42.122;24.734;2023-07-24T03:36:55;31.33;;;20.05;;
79761;SDS011;69249;42.122;24.734;2023-07-24T03:39:21;31.17;;;20.05;;
79761;SDS011;69249;42.122;24.734;2023-07-24T03:41:47;35.33;;;19.00;;
79761;SDS011;69249;42.122;24.734;2023-07-24T03:44:12;28.55;;;19.05;;
79761;SDS011;69249;42.122;24.734;2023-07-24T03:46:38;30.85;;;18.95;;
79761;SDS011;69249;42.122;24.734;2023-07-24T03:49:04;28.85;;;19.27;;
79761;SDS011;69249;42.122;24.734;2023-07-24T03:51:29;30.02;;;18.80;;
79761;SDS011;69249;42.122;24.734;2023-07-24T03:53:55;29.55;;;18.80;;
79761;SDS011;69249;42.122;24.734;2023-07-24T03:56:21;27.52;;;18.15;;
79761;SDS011;69249;42.122;24.734;2023-07-24T03:58:46;30.38;;;19.00;;
79761;SDS011;69249;42.122;24.734;2023-07-24T04:01:12;31.98;;;19.00;;
79761;SDS011;69249;42.122;24.734;2023-07-24T04:03:38;26.27;;;17.35;;
79761;SDS011;69249;42.122;24.734;2023-07-24T04:06:03;30.25;;;19.35;;
79761;SDS011;69249;42.122;24.734;2023-07-24T04:08:29;25.77;;;18.73;;
79761;SDS011;69249;42.122;24.734;2023-07-24T04:10:55;26.42;;;18.30;;
79761;SDS011;69249;42.122;24.734;2023-07-24T04:13:21;28.23;;;18.35;;
79761;SDS011;69249;42.122;24.734;2023-07-24T04:15:47;23.15;;;17.77;;
79761;SDS011;69249;42.122;24.734;2023-07-24T04:18:13;26.00;;;17.55;;
79761;SDS011;69249;42.122;24.734;2023-07-24T04:20:39;28.58;;;19.35;;
79761;SDS011;69249;42.122;24.734;2023-07-24T04:23:04;26.83;;;18.52;;
79761;SDS011;69249;42.122;24.734;2023-07-24T04:25:30;25.73;;;18.08;;
79761;SDS011;69249;42.122;24.734;2023-07-24T04:27:56;24.33;;;18.13;;
79761;SDS011;69249;42.122;24.734;2023-07-24T04:30:21;24.58;;;17.67;;
79761;SDS011;69249;42.122;24.734;2023-07-24T04:32:47;23.08;;;17.63;;
79761;SDS011;69249;42.122;24.734;2023-07-24T04:35:13;26.80;;;18.55;;
79761;SDS011;69249;42.122;24.734;2023-07-24T04:37:38;27.73;;;18.85;;
79761;SDS011;69249;42.122;24.734;2023-07-24T04:40:04;23.48;;;18.13;;
79761;SDS011;69249;42.122;24.734;2023-07-24T04:42:30;23.02;;;14.90;;
79761;SDS011;69249;42.122;24.734;2023-07-24T04:44:56;25.38;;;15.43;;
79761;SDS011;69249;42.122;24.734;2023-07-24T04:47:22;25.52;;;15.13;;
79761;SDS011;69249;42.122;24.734;2023-07-24T04:49:48;23.05;;;15.57;;
79761;SDS011;69249;42.122;24.734;2023-07-24T04:52:13;29.40;;;15.88;;
79761;SDS011;69249;42.122;24.734;2023-07-24T04:54:39;26.85;;;15.80;;
79761;SDS011;69249;42.122;24.734;2023-07-24T04:57:05;29.23;;;16.17;;
79761;SDS011;69249;42.122;24.734;2023-07-24T04:59:30;30.63;;;15.88;;
79761;SDS011;69249;42.122;24.734;2023-07-24T05:01:56;28.98;;;15.40;;
79761;SDS011;69249;42.122;24.734;2023-07-24T05:04:21;30.35;;;17.35;;
79761;SDS011;69249;42.122;24.734;2023-07-24T05:06:47;32.38;;;17.95;;
79761;SDS011;69249;42.122;24.734;2023-07-24T05:09:13;29.20;;;19.75;;
79761;SDS011;69249;42.122;24.734;2023-07-24T05:11:39;37.15;;;20.05;;
79761;SDS011;69249;42.122;24.734;2023-07-24T05:14:05;34.08;;;20.40;;
79761;SDS011;69249;42.122;24.734;2023-07-24T05:16:31;40.92;;;20.27;;
79761;SDS011;69249;42.122;24.734;2023-07-24T05:18:56;34.83;;;21.48;;
79761;SDS011;69249;42.122;24.734;2023-07-24T05:21:22;32.75;;;19.95;;
79761;SDS011;69249;42.122;24.734;2023-07-24T05:23:48;34.67;;;20.95;;
79761;SDS011;69249;42.122;24.734;2023-07-24T05:26:13;33.53;;;19.95;;
79761;SDS011;69249;42.122;24.734;2023-07-24T05:28:39;42.60;;;20.98;;
79761;SDS011;69249;42.122;24.734;2023-07-24T05:31:05;33.72;;;19.35;;
79761;SDS011;69249;42.122;24.734;2023-07-24T05:33:32;42.85;;;21.00;;
79761;SDS011;69249;42.122;24.734;2023-07-24T05:35:58;31.80;;;19.95;;
79761;SDS011;69249;42.122;24.734;2023-07-24T05:38:25;35.92;;;20.48;;
79761;SDS011;69249;42.122;24.734;2023-07-24T05:40:54;28.42;;;19.83;;
79761;SDS011;69249;42.122;24.734;2023-07-24T05:43:21;36.13;;;21.25;;
79761;SDS011;69249;42.122;24.734;2023-07-24T05:45:47;35.72;;;22.70;;
79761;SDS011;69249;42.122;24.734;2023-07-24T05:48:13;27.15;;;20.33;;
79761;SDS011;69249;42.122;24.734;2023-07-24T05:50:38;31.70;;;22.02;;
79761;SDS011;69249;42.122;24.734;2023-07-24T05:53:06;31.77;;;21.90;;
79761;SDS011;69249;42.122;24.734;2023-07-24T05:55:31;47.20;;;21.17;;
79761;SDS011;69249;42.122;24.734;2023-07-24T05:57:57;63.22;;;23.42;;
79761;SDS011;69249;42.122;24.734;2023-07-24T06:00:23;349.10;;;34.42;;
79761;SDS011;69249;42.122;24.734;2023-07-24T06:02:48;34.63;;;20.20;;
79761;SDS011;69249;42.122;24.734;2023-07-24T06:05:14;26.08;;;20.15;;
79761;SDS011;69249;42.122;24.734;2023-07-24T06:07:40;30.90;;;19.35;;
79761;SDS011;69249;42.122;24.734;2023-07-24T06:10:05;25.33;;;18.60;;
79761;SDS011;69249;42.122;24.734;2023-07-24T06:12:31;32.30;;;20.67;;
79761;SDS011;69249;42.122;24.734;2023-07-24T06:14:57;31.92;;;19.95;;
79761;SDS011;69249;42.122;24.734;2023-07-24T06:17:23;26.83;;;20.00;;
79761;SDS011;69249;42.122;24.734;2023-07-24T06:19:48;26.15;;;19.13;;
79761;SDS011;69249;42.122;24.734;2023-07-24T06:22:14;34.10;;;18.90;;
79761;SDS011;69249;42.122;24.734;2023-07-24T06:24:40;28.77;;;19.40;;
79761;SDS011;69249;42.122;24.734;2023-07-24T06:27:07;28.98;;;19.25;;
79761;SDS011;69249;42.122;24.734;2023-07-24T06:29:32;28.33;;;17.83;;
79761;SDS011;69249;42.122;24.734;2023-07-24T06:31:58;29.90;;;19.33;;
79761;SDS011;69249;42.122;24.734;2023-07-24T06:34:24;28.02;;;19.40;;
79761;SDS011;69249;42.122;24.734;2023-07-24T06:36:50;28.17;;;18.70;;
79761;SDS011;69249;42.122;24.734;2023-07-24T06:39:15;27.70;;;19.27;;
79761;SDS011;69249;42.122;24.734;2023-07-24T06:41:41;31.50;;;19.17;;
79761;SDS011;69249;42.122;24.734;2023-07-24T06:44:07;26.33;;;18.33;;
79761;SDS011;69249;42.122;24.734;2023-07-24T06:46:33;22.02;;;17.10;;
79761;SDS011;69249;42.122;24.734;2023-07-24T06:48:58;26.98;;;18.20;;
79761;SDS011;69249;42.122;24.734;2023-07-24T06:51:24;23.58;;;17.90;;
79761;SDS011;69249;42.122;24.734;2023-07-24T06:53:50;28.55;;;18.58;;
79761;SDS011;69249;42.122;24.734;2023-07-24T06:56:15;23.30;;;18.10;;
79761;SDS011;69249;42.122;24.734;2023-07-24T06:58:41;28.65;;;18.05;;
79761;SDS011;69249;42.122;24.734;2023-07-24T07:01:07;23.40;;;17.40;;
79761;SDS011;69249;42.122;24.734;2023-07-24T07:03:33;22.08;;;17.88;;
79761;SDS011;69249;42.122;24.734;2023-07-24T07:06:02;24.85;;;18.02;;
79761;SDS011;69249;42.122;24.734;2023-07-24T07:08:28;35.80;;;18.05;;
79761;SDS011;69249;42.122;24.734;2023-07-24T07:10:58;23.85;;;18.60;;
79761;SDS011;69249;42.122;24.734;2023-07-24T07:13:25;25.08;;;17.27;;
79761;SDS011;69249;42.122;24.734;2023-07-24T07:15:51;21.10;;;17.88;;
79761;SDS011;69249;42.122;24.734;2023-07-24T07:18:16;28.73;;;18.20;;
79761;SDS011;69249;42.122;24.734;2023-07-24T07:20:48;30.05;;;19.35;;
79761;SDS011;69249;42.122;24.734;2023-07-24T07:23:15;26.30;;;18.80;;
79761;SDS011;69249;42.122;24.734;2023-07-24T07:25:41;24.45;;;18.58;;
79761;SDS011;69249;42.122;24.734;2023-07-24T07:28:14;28.13;;;19.38;;
79761;SDS011;69249;42.122;24.734;2023-07-24T07:30:41;23.23;;;17.38;;
79761;SDS011;69249;42.122;24.734;2023-07-24T07:33:07;24.33;;;18.63;;
79761;SDS011;69249;42.122;24.734;2023-07-24T07:35:33;24.63;;;17.15;;
79761;SDS011;69249;42.122;24.734;2023-07-24T07:38:00;22.00;;;17.05;;
79761;SDS011;69249;42.122;24.734;2023-07-24T07:40:26;26.23;;;16.00;;
79761;SDS011;69249;42.122;24.734;2023-07-24T07:42:55;20.25;;;17.38;;
79761;SDS011;69249;42.122;24.734;2023-07-24T07:45:24;20.13;;;16.67;;
79761;SDS011;69249;42.122;24.734;2023-07-24T07:47:50;22.45;;;16.52;;
79761;SDS011;69249;42.122;24.734;2023-07-24T07:50:18;21.48;;;17.08;;
79761;SDS011;69249;42.122;24.734;2023-07-24T07:52:44;21.88;;;17.65;;
79761;SDS011;69249;42.122;24.734;2023-07-24T07:55:10;21.60;;;16.25;;
79761;SDS011;69249;42.122;24.734;2023-07-24T07:57:36;26.67;;;17.15;;
79761;SDS011;69249;42.122;24.734;2023-07-24T08:00:03;21.92;;;17.23;;
79761;SDS011;69249;42.122;24.734;2023-07-24T08:02:29;22.73;;;17.27;;
79761;SDS011;69249;42.122;24.734;2023-07-24T08:04:55;27.10;;;17.65;;
79761;SDS011;69249;42.122;24.734;2023-07-24T08:07:21;21.58;;;17.50;;
79761;SDS011;69249;42.122;24.734;2023-07-24T08:09:46;24.60;;;17.17;;
79761;SDS011;69249;42.122;24.734;2023-07-24T08:12:12;20.17;;;17.05;;
79761;SDS011;69249;42.122;24.734;2023-07-24T08:14:38;24.73;;;16.90;;
79761;SDS011;69249;42.122;24.734;2023-07-24T08:17:03;29.58;;;17.05;;
79761;SDS011;69249;42.122;24.734;2023-07-24T08:19:29;21.92;;;16.42;;
79761;SDS011;69249;42.122;24.734;2023-07-24T08:21:55;18.83;;;15.05;;
79761;SDS011;69249;42.122;24.734;2023-07-24T08:24:21;23.15;;;16.83;;
79761;SDS011;69249;42.122;24.734;2023-07-24T08:26:46;23.83;;;16.33;;
79761;SDS011;69249;42.122;24.734;2023-07-24T08:29:12;23.77;;;16.58;;
79761;SDS011;69249;42.122;24.734;2023-07-24T08:31:38;17.33;;;14.77;;
79761;SDS011;69249;42.122;24.734;2023-07-24T08:34:04;20.98;;;14.68;;
79761;SDS011;69249;42.122;24.734;2023-07-24T08:36:29;18.88;;;14.65;;
79761;SDS011;69249;42.122;24.734;2023-07-24T08:38:55;18.55;;;15.15;;
79761;SDS011;69249;42.122;24.734;2023-07-24T08:41:21;20.42;;;15.68;;
79761;SDS011;69249;42.122;24.734;2023-07-24T08:43:46;19.13;;;15.10;;
79761;SDS011;69249;42.122;24.734;2023-07-24T08:46:14;18.83;;;15.85;;
79761;SDS011;69249;42.122;24.734;2023-07-24T08:48:41;22.52;;;15.43;;
79761;SDS011;69249;42.122;24.734;2023-07-24T08:51:08;22.60;;;15.48;;
79761;SDS011;69249;42.122;24.734;2023-07-24T08:53:36;21.65;;;15.23;;
79761;SDS011;69249;42.122;24.734;2023-07-24T08:56:06;16.50;;;14.77;;
79761;SDS011;69249;42.122;24.734;2023-07-24T08:58:33;19.65;;;15.00;;
79761;SDS011;69249;42.122;24.734;2023-07-24T09:01:01;18.58;;;13.88;;
79761;SDS011;69249;42.122;24.734;2023-07-24T09:03:28;18.05;;;14.70;;
79761;SDS011;69249;42.122;24.734;2023-07-24T09:05:53;16.35;;;14.65;;
79761;SDS011;69249;42.122;24.734;2023-07-24T09:10:58;17.90;;;13.70;;
79761;SDS011;69249;42.122;24.734;2023-07-24T09:13:25;15.02;;;13.52;;
79761;SDS011;69249;42.122;24.734;2023-07-24T09:15:50;16.70;;;13.60;;
79761;SDS011;69249;42.122;24.734;2023-07-24T09:18:16;16.70;;;14.45;;
79761;SDS011;69249;42.122;24.734;2023-07-24T09:20:43;18.15;;;13.43;;
79761;SDS011;69249;42.122;24.734;2023-07-24T09:23:11;18.58;;;12.60;;
79761;SDS011;69249;42.122;24.734;2023-07-24T09:25:39;17.00;;;12.95;;
79761;SDS011;69249;42.122;24.734;2023-07-24T09:28:14;13.75;;;11.25;;
79761;SDS011;69249;42.122;24.734;2023-07-24T09:30:53;14.23;;;12.45;;
79761;SDS011;69249;42.122;24.734;2023-07-24T09:33:20;17.30;;;12.60;;
79761;SDS011;69249;42.122;24.734;2023-07-24T09:35:56;15.48;;;13.10;;
79761;SDS011;69249;42.122;24.734;2023-07-24T09:38:25;17.20;;;13.95;;
79761;SDS011;69249;42.122;24.734;2023-07-24T09:40:52;16.38;;;13.40;;
79761;SDS011;69249;42.122;24.734;2023-07-24T09:43:22;15.98;;;12.35;;
79761;SDS011;69249;42.122;24.734;2023-07-24T09:45:49;16.55;;;13.52;;
79761;SDS011;69249;42.122;24.734;2023-07-24T09:48:17;16.92;;;12.95;;
79761;SDS011;69249;42.122;24.734;2023-07-24T09:50:47;16.05;;;12.65;;
79761;SDS011;69249;42.122;24.734;2023-07-24T09:55:57;20.08;;;14.38;;
79761;SDS011;69249;42.122;24.734;2023-07-24T09:58:24;15.43;;;13.52;;
79761;SDS011;69249;42.122;24.734;2023-07-24T10:00:51;15.88;;;13.73;;
79761;SDS011;69249;42.122;24.734;2023-07-24T10:03:18;19.17;;;12.50;;
79761;SDS011;69249;42.122;24.734;2023-07-24T10:05:45;14.85;;;13.27;;
79761;SDS011;69249;42.122;24.734;2023-07-24T10:08:12;16.25;;;14.40;;
79761;SDS011;69249;42.122;24.734;2023-07-24T10:10:40;27.63;;;14.00;;
79761;SDS011;69249;42.122;24.734;2023-07-24T10:13:11;15.93;;;14.23;;
79761;SDS011;69249;42.122;24.734;2023-07-24T10:15:42;14.95;;;13.35;;
79761;SDS011;69249;42.122;24.734;2023-07-24T10:18:10;20.90;;;13.32;;
79761;SDS011;69249;42.122;24.734;2023-07-24T10:20:36;15.70;;;12.57;;
79761;SDS011;69249;42.122;24.734;2023-07-24T10:23:04;25.48;;;12.48;;
79761;SDS011;69249;42.122;24.734;2023-07-24T10:25:32;15.75;;;13.13;;
79761;SDS011;69249;42.122;24.734;2023-07-24T10:28:02;18.27;;;12.57;;
79761;SDS011;69249;42.122;24.734;2023-07-24T10:30:33;13.95;;;11.98;;
79761;SDS011;69249;42.122;24.734;2023-07-24T10:33:03;13.98;;;11.80;;
79761;SDS011;69249;42.122;24.734;2023-07-24T10:35:45;12.80;;;10.98;;
79761;SDS011;69249;42.122;24.734;2023-07-24T10:38:13;13.63;;;11.48;;
79761;SDS011;69249;42.122;24.734;2023-07-24T10:40:40;13.65;;;11.27;;
79761;SDS011;69249;42.122;24.734;2023-07-24T10:43:12;12.70;;;11.35;;
79761;SDS011;69249;42.122;24.734;2023-07-24T10:48:18;15.65;;;10.82;;
79761;SDS011;69249;42.122;24.734;2023-07-24T10:50:48;13.25;;;10.65;;
79761;SDS011;69249;42.122;24.734;2023-07-24T10:53:16;12.07;;;10.77;;
79761;SDS011;69249;42.122;24.734;2023-07-24T10:55:43;15.48;;;9.88;;
79761;SDS011;69249;42.122;24.734;2023-07-24T10:58:11;12.70;;;10.18;;
79761;SDS011;69249;42.122;24.734;2023-07-24T11:00:40;15.60;;;10.60;;
79761;SDS011;69249;42.122;24.734;2023-07-24T11:03:10;15.18;;;11.65;;
79761;SDS011;69249;42.122;24.734;2023-07-24T11:05:43;14.48;;;12.60;;
79761;SDS011;69249;42.122;24.734;2023-07-24T11:08:16;16.05;;;13.27;;
79761;SDS011;69249;42.122;24.734;2023-07-24T11:10:50;15.55;;;13.93;;
79761;SDS011;69249;42.122;24.734;2023-07-24T11:13:18;14.93;;;13.48;;
79761;SDS011;69249;42.122;24.734;2023-07-24T11:15:45;16.90;;;12.68;;
79761;SDS011;69249;42.122;24.734;2023-07-24T11:18:11;17.05;;;11.98;;
79761;SDS011;69249;42.122;24.734;2023-07-24T11:20:38;15.10;;;12.55;;
79761;SDS011;69249;42.122;24.734;2023-07-24T11:23:17;14.32;;;11.88;;
79761;SDS011;69249;42.122;24.734;2023-07-24T11:25:43;15.68;;;11.98;;
79761;SDS011;69249;42.122;24.734;2023-07-24T11:28:11;15.30;;;12.73;;
79761;SDS011;69249;42.122;24.734;2023-07-24T11:30:38;14.73;;;12.65;;
79761;SDS011;69249;42.122;24.734;2023-07-24T11:33:04;15.43;;;13.02;;
79761;SDS011;69249;42.122;24.734;2023-07-24T11:35:32;15.05;;;13.63;;
79761;SDS011;69249;42.122;24.734;2023-07-24T11:38:01;14.88;;;12.88;;
79761;SDS011;69249;42.122;24.734;2023-07-24T11:40:32;14.50;;;13.00;;
79761;SDS011;69249;42.122;24.734;2023-07-24T11:43:02;14.25;;;12.82;;
79761;SDS011;69249;42.122;24.734;2023-07-24T11:45:31;15.00;;;12.40;;
79761;SDS011;69249;42.122;24.734;2023-07-24T11:48:10;13.75;;;12.60;;
79761;SDS011;69249;42.122;24.734;2023-07-24T11:50:49;14.33;;;13.10;;
79761;SDS011;69249;42.122;24.734;2023-07-24T11:53:23;15.02;;;13.48;;
79761;SDS011;69249;42.122;24.734;2023-07-24T11:55:54;13.60;;;12.50;;
79761;SDS011;69249;42.122;24.734;2023-07-24T11:58:21;13.75;;;12.52;;
79761;SDS011;69249;42.122;24.734;2023-07-24T12:00:47;13.82;;;12.50;;
79761;SDS011;69249;42.122;24.734;2023-07-24T12:03:20;13.73;;;12.43;;
79761;SDS011;69249;42.122;24.734;2023-07-24T12:05:50;13.82;;;12.63;;
79761;SDS011;69249;42.122;24.734;2023-07-24T12:08:16;15.05;;;12.73;;
79761;SDS011;69249;42.122;24.734;2023-07-24T12:10:48;14.23;;;13.05;;
79761;SDS011;69249;42.122;24.734;2023-07-24T12:13:14;13.55;;;12.50;;
79761;SDS011;69249;42.122;24.734;2023-07-24T12:15:40;14.73;;;13.32;;
79761;SDS011;69249;42.122;24.734;2023-07-24T12:18:06;14.20;;;12.88;;
79761;SDS011;69249;42.122;24.734;2023-07-24T12:20:32;14.50;;;13.20;;
79761;SDS011;69249;42.122;24.734;2023-07-24T12:22:58;15.10;;;13.65;;
79761;SDS011;69249;42.122;24.734;2023-07-24T12:25:24;14.70;;;13.30;;
79761;SDS011;69249;42.122;24.734;2023-07-24T12:27:50;14.32;;;12.98;;
79761;SDS011;69249;42.122;24.734;2023-07-24T12:30:15;15.27;;;13.77;;
79761;SDS011;69249;42.122;24.734;2023-07-24T12:32:41;14.25;;;12.95;;
79761;SDS011;69249;42.122;24.734;2023-07-24T12:35:07;15.10;;;13.55;;
79761;SDS011;69249;42.122;24.734;2023-07-24T12:37:34;14.13;;;12.73;;
79761;SDS011;69249;42.122;24.734;2023-07-24T12:40:00;13.18;;;11.98;;
79761;SDS011;69249;42.122;24.734;2023-07-24T12:42:25;15.45;;;12.57;;
79761;SDS011;69249;42.122;24.734;2023-07-24T12:44:52;14.02;;;12.63;;
79761;SDS011;69249;42.122;24.734;2023-07-24T12:47:18;14.05;;;12.55;;
79761;SDS011;69249;42.122;24.734;2023-07-24T12:49:43;14.20;;;12.38;;
79761;SDS011;69249;42.122;24.734;2023-07-24T12:52:09;13.43;;;11.93;;
79761;SDS011;69249;42.122;24.734;2023-07-24T12:54:36;13.50;;;11.75;;
79761;SDS011;69249;42.122;24.734;2023-07-24T12:57:02;12.88;;;11.55;;
79761;SDS011;69249;42.122;24.734;2023-07-24T12:59:28;12.00;;;10.95;;
79761;SDS011;69249;42.122;24.734;2023-07-24T13:01:54;12.73;;;11.50;;
79761;SDS011;69249;42.122;24.734;2023-07-24T13:04:20;13.20;;;11.82;;
79761;SDS011;69249;42.122;24.734;2023-07-24T13:06:46;12.10;;;10.85;;
79761;SDS011;69249;42.122;24.734;2023-07-24T13:09:11;13.25;;;11.60;;
79761;SDS011;69249;42.122;24.734;2023-07-24T13:11:37;13.30;;;11.70;;
79761;SDS011;69249;42.122;24.734;2023-07-24T13:14:03;15.68;;;11.95;;
79761;SDS011;69249;42.122;24.734;2023-07-24T13:16:28;13.38;;;10.93;;
79761;SDS011;69249;42.122;24.734;2023-07-24T13:18:54;12.10;;;10.90;;
79761;SDS011;69249;42.122;24.734;2023-07-24T13:21:20;11.90;;;10.32;;
79761;SDS011;69249;42.122;24.734;2023-07-24T13:23:46;12.68;;;10.48;;
79761;SDS011;69249;42.122;24.734;2023-07-24T13:26:12;14.23;;;11.13;;
79761;SDS011;69249;42.122;24.734;2023-07-24T13:28:38;19.15;;;11.57;;
79761;SDS011;69249;42.122;24.734;2023-07-24T13:31:18;12.52;;;11.20;;
79761;SDS011;69249;42.122;24.734;2023-07-24T13:33:45;12.07;;;10.88;;
79761;SDS011;69249;42.122;24.734;2023-07-24T13:36:11;12.18;;;10.45;;
79761;SDS011;69249;42.122;24.734;2023-07-24T13:38:37;11.98;;;10.77;;
79761;SDS011;69249;42.122;24.734;2023-07-24T13:41:03;11.80;;;10.25;;
79761;SDS011;69249;42.122;24.734;2023-07-24T13:43:32;12.70;;;11.10;;
79761;SDS011;69249;42.122;24.734;2023-07-24T13:45:58;13.30;;;11.27;;
79761;SDS011;69249;42.122;24.734;2023-07-24T13:48:24;12.82;;;10.95;;
79761;SDS011;69249;42.122;24.734;2023-07-24T13:50:52;12.13;;;10.35;;
79761;SDS011;69249;42.122;24.734;2023-07-24T13:53:18;12.25;;;10.50;;
79761;SDS011;69249;42.122;24.734;2023-07-24T13:55:43;12.20;;;10.05;;
79761;SDS011;69249;42.122;24.734;2023-07-24T13:58:09;13.57;;;10.57;;
79761;SDS011;69249;42.122;24.734;2023-07-24T14:00:35;15.27;;;11.30;;
79761;SDS011;69249;42.122;24.734;2023-07-24T14:03:01;13.13;;;10.13;;
79761;SDS011;69249;42.122;24.734;2023-07-24T14:05:26;11.52;;;10.05;;
79761;SDS011;69249;42.122;24.734;2023-07-24T14:07:53;11.43;;;9.68;;
79761;SDS011;69249;42.122;24.734;2023-07-24T14:10:19;10.73;;;9.55;;
79761;SDS011;69249;42.122;24.734;2023-07-24T14:12:45;13.75;;;9.88;;
79761;SDS011;69249;42.122;24.734;2023-07-24T14:15:11;12.57;;;9.93;;
79761;SDS011;69249;42.122;24.734;2023-07-24T14:17:37;12.27;;;10.60;;
79761;SDS011;69249;42.122;24.734;2023-07-24T14:20:03;11.52;;;10.00;;